createdAt,value
2022-09-01T00:01:39.264Z,99.90
2022-09-01T00:04:08.919Z,99.90
2022-09-01T00:06:40.081Z,99.90
2022-09-01T00:09:09.625Z,99.90
2022-09-01T00:11:37.512Z,99.90
2022-09-01T00:14:06.805Z,99.90
2022-09-01T00:16:51.773Z,99.90
2022-09-01T00:19:19.707Z,99.90
2022-09-01T00:21:47.610Z,99.90
2022-09-01T00:24:16.262Z,99.90
2022-09-01T00:26:44.376Z,99.90
2022-09-01T00:29:12.444Z,99.90
2022-09-01T00:31:40.818Z,99.90
2022-09-01T00:34:10.117Z,99.90
2022-09-01T00:36:38.003Z,99.90
2022-09-01T00:39:06.333Z,99.90
2022-09-01T00:41:35.414Z,99.90
2022-09-01T00:44:05.489Z,99.90
2022-09-01T00:46:36.523Z,99.90
2022-09-01T00:49:13.811Z,99.90
2022-09-01T00:51:43.996Z,99.90
2022-09-01T00:54:13.736Z,99.90
2022-09-01T00:56:42.049Z,99.90
2022-09-01T00:59:14.688Z,99.90
2022-09-01T01:01:42.535Z,99.90
2022-09-01T01:04:14.846Z,99.90
2022-09-01T01:06:49.746Z,99.90
2022-09-01T01:09:17.793Z,99.90
2022-09-01T01:11:47.577Z,99.90
2022-09-01T01:14:17.374Z,99.90
2022-09-01T01:16:46.747Z,99.90
2022-09-01T01:19:39.084Z,99.90
2022-09-01T01:22:28.084Z,99.90
2022-09-01T01:24:58.358Z,99.90
2022-09-01T01:27:26.235Z,99.90
2022-09-01T01:29:55.333Z,99.90
2022-09-01T01:35:55.347Z,99.90
2022-09-01T01:38:23.376Z,99.90
2022-09-01T01:40:53.797Z,99.90
2022-09-01T01:43:21.938Z,99.90
2022-09-01T01:45:52.151Z,99.90
2022-09-01T01:48:22.857Z,99.90
2022-09-01T01:50:51.125Z,99.90
2022-09-01T01:53:19.702Z,99.90
2022-09-01T01:55:49.611Z,99.90
2022-09-01T01:58:19.942Z,99.90
2022-09-01T02:00:49.013Z,99.90
2022-09-01T02:03:19.084Z,99.90
2022-09-01T02:05:47.149Z,99.90
2022-09-01T02:08:16.394Z,99.90
2022-09-01T02:10:46.033Z,99.90
2022-09-01T02:13:16.827Z,99.90
2022-09-01T02:15:47.220Z,99.90
2022-09-01T02:18:17.333Z,99.90
2022-09-01T02:20:45.423Z,99.90
2022-09-01T02:23:15.204Z,99.90
2022-09-01T02:26:14.104Z,99.90
2022-09-01T02:28:36.829Z,99.90
2022-09-01T02:31:08.954Z,99.90
2022-09-01T02:33:39.182Z,99.90
2022-09-01T02:36:08.453Z,99.90
2022-09-01T02:38:36.554Z,99.90
2022-09-01T02:41:07.987Z,99.90
2022-09-01T02:43:35.946Z,99.90
2022-09-01T02:46:07.555Z,99.90
2022-09-01T02:48:38.032Z,99.90
2022-09-01T02:51:07.110Z,99.90
2022-09-01T02:53:35.498Z,99.90
2022-09-01T02:56:03.684Z,99.90
2022-09-01T02:58:34.093Z,99.90
2022-09-01T03:01:02.853Z,99.90
2022-09-01T03:03:33.110Z,99.90
2022-09-01T03:06:01.408Z,99.90
2022-09-01T03:08:34.370Z,99.90
2022-09-01T03:11:03.008Z,99.90
2022-09-01T03:13:31.286Z,99.90
2022-09-01T03:15:59.088Z,99.90
2022-09-01T03:18:26.937Z,99.90
2022-09-01T03:20:56.243Z,99.90
2022-09-01T03:23:25.348Z,99.90
2022-09-01T03:25:53.265Z,99.90
2022-09-01T03:28:21.307Z,99.90
2022-09-01T03:30:50.419Z,99.90
2022-09-01T03:33:18.826Z,99.90
2022-09-01T03:35:47.006Z,99.90
2022-09-01T03:38:21.994Z,99.90
2022-09-01T03:40:51.294Z,99.90
2022-09-01T03:43:20.032Z,99.90
2022-09-01T03:45:48.056Z,99.90
2022-09-01T03:48:17.060Z,99.90
2022-09-01T03:50:47.155Z,99.90
2022-09-01T03:53:17.593Z,99.90
2022-09-01T03:55:46.254Z,99.90
2022-09-01T03:58:18.937Z,99.90
2022-09-01T04:00:49.301Z,99.90
2022-09-01T04:03:28.534Z,99.90
2022-09-01T04:05:57.017Z,99.90
2022-09-01T04:08:32.279Z,99.90
2022-09-01T04:11:02.882Z,99.90
2022-09-01T04:13:32.055Z,99.90
2022-09-01T04:16:00.044Z,99.90
2022-09-01T04:18:27.024Z,99.90
2022-09-01T04:20:56.854Z,99.90
2022-09-01T04:23:27.520Z,99.90
2022-09-01T04:25:56.722Z,99.90
2022-09-01T04:28:26.242Z,99.90
2022-09-01T04:30:55.944Z,99.90
2022-09-01T04:33:24.660Z,99.90
2022-09-01T04:35:56.679Z,99.90
2022-09-01T04:38:26.252Z,99.90
2022-09-01T04:40:57.309Z,99.90
2022-09-01T04:43:25.805Z,99.90
2022-09-01T04:45:53.789Z,99.90
2022-09-01T04:48:22.231Z,99.90
2022-09-01T04:50:52.058Z,99.90
2022-09-01T04:53:20.376Z,99.90
2022-09-01T04:55:50.297Z,1.00
2022-09-01T04:58:18.673Z,1.00
2022-09-01T05:00:48.137Z,99.90
2022-09-01T05:03:17.078Z,1.00
2022-09-01T05:05:46.033Z,99.90
2022-09-01T05:08:23.225Z,1.00
2022-09-01T05:10:55.729Z,1.00
2022-09-01T05:13:24.312Z,1.00
2022-09-01T05:16:01.943Z,1.00
2022-09-01T05:18:30.164Z,1.00
2022-09-01T05:20:58.049Z,1.00
2022-09-01T05:23:26.733Z,1.00
2022-09-01T05:25:56.313Z,1.00
2022-09-01T05:28:27.118Z,1.00
2022-09-01T05:30:55.171Z,23.40
2022-09-01T05:33:23.470Z,1.00
2022-09-01T05:35:55.515Z,7.20
2022-09-01T05:38:24.248Z,99.90
2022-09-01T05:40:59.013Z,99.90
2022-09-01T05:43:27.854Z,99.90
2022-09-01T05:46:06.710Z,58.90
2022-09-01T05:48:40.180Z,71.60
2022-09-01T05:51:22.446Z,99.90
2022-09-01T05:53:58.945Z,99.90
2022-09-01T05:56:29.021Z,99.90
2022-09-01T06:01:50.426Z,1.00
2022-09-01T06:04:19.020Z,1.00
2022-09-01T06:07:06.804Z,1.00
2022-09-01T06:09:38.199Z,1.00
2022-09-01T06:12:09.258Z,1.00
2022-09-01T06:14:37.161Z,1.00
2022-09-01T06:17:06.699Z,99.90
2022-09-01T06:19:37.345Z,1.00
2022-09-01T06:22:05.545Z,99.90
2022-09-01T06:24:33.557Z,99.90
2022-09-01T06:27:01.386Z,99.90
2022-09-01T06:29:31.380Z,99.90
2022-09-01T06:32:02.297Z,99.90
2022-09-01T06:34:30.264Z,99.90
2022-09-01T06:36:58.136Z,99.90
2022-09-01T06:39:26.604Z,99.90
2022-09-01T06:41:54.868Z,99.90
2022-09-01T06:44:23.461Z,99.90
2022-09-01T06:46:53.297Z,99.90
2022-09-01T06:49:21.741Z,99.90
2022-09-01T06:51:49.783Z,99.90
2022-09-01T06:54:21.153Z,1.00
2022-09-01T06:56:51.750Z,1.00
2022-09-01T06:59:20.629Z,1.00
2022-09-01T07:01:49.862Z,1.00
2022-09-01T07:04:21.415Z,1.00
2022-09-01T07:06:59.674Z,1.00
2022-09-01T07:09:47.947Z,1.00
2022-09-01T07:12:26.998Z,1.00
2022-09-01T07:17:44.949Z,99.90
2022-09-01T07:20:23.471Z,99.90
2022-09-01T07:23:07.615Z,99.90
2022-09-01T07:26:00.666Z,99.90
2022-09-01T07:31:49.650Z,99.90
2022-09-01T07:38:48.050Z,99.90
2022-09-01T07:39:51.538Z,16.80
2022-09-01T07:42:55.573Z,99.90
2022-09-01T07:45:26.133Z,27.20
2022-09-01T07:47:54.817Z,1.00
2022-09-01T07:51:34.356Z,1.00
2022-09-01T07:53:18.361Z,1.00
2022-09-01T07:55:46.891Z,1.00
2022-09-01T07:58:15.123Z,1.00
2022-09-01T08:00:43.628Z,1.00
2022-09-01T08:03:11.749Z,1.00
2022-09-01T08:05:39.617Z,1.00
2022-09-01T08:08:18.558Z,1.00
2022-09-01T08:10:49.419Z,99.90
2022-09-01T08:13:20.004Z,99.90
2022-09-01T08:18:53.331Z,99.90
2022-09-01T08:21:23.488Z,99.90
2022-09-01T08:23:51.891Z,99.90
2022-09-01T08:26:22.595Z,99.90
2022-09-01T08:28:54.971Z,99.90
2022-09-01T08:31:24.575Z,99.90
2022-09-01T08:33:52.634Z,99.90
2022-09-01T08:36:23.994Z,99.90
2022-09-01T08:38:53.065Z,99.90
2022-09-01T08:41:28.671Z,99.90
2022-09-01T08:44:01.834Z,99.90
2022-09-01T08:46:31.205Z,99.90
2022-09-01T08:51:51.300Z,99.90
2022-09-01T08:54:29.376Z,99.90
2022-09-01T08:57:00.284Z,99.90
2022-09-01T08:59:28.746Z,99.90
2022-09-01T09:02:01.023Z,99.90
2022-09-01T09:04:36.273Z,99.90
2022-09-01T09:07:07.431Z,99.90
2022-09-01T09:09:38.774Z,93.20
2022-09-01T09:12:17.219Z,84.00
2022-09-01T09:14:50.666Z,77.70
2022-09-01T09:17:20.916Z,32.00
2022-09-01T09:19:48.827Z,18.30
2022-09-01T09:22:17.831Z,14.80
2022-09-01T09:24:50.983Z,9.30
2022-09-01T09:27:22.027Z,1.00
2022-09-01T09:29:52.259Z,1.00
2022-09-01T09:32:35.124Z,1.00
2022-09-01T09:35:19.218Z,1.00
2022-09-01T09:37:47.130Z,1.00
2022-09-01T09:40:16.189Z,1.00
2022-09-01T09:43:02.532Z,1.00
2022-09-01T09:45:33.895Z,1.00
2022-09-01T09:48:05.764Z,1.00
2022-09-01T09:50:34.892Z,1.00
2022-09-01T09:53:14.188Z,1.00
2022-09-01T09:55:56.074Z,1.00
2022-09-01T09:58:26.933Z,1.00
2022-09-01T10:01:03.770Z,1.00
2022-09-01T10:03:39.327Z,1.00
2022-09-01T10:06:11.464Z,1.00
2022-09-01T10:08:44.821Z,1.00
2022-09-01T10:11:27.959Z,1.00
2022-09-01T10:13:59.320Z,1.00
2022-09-01T10:16:32.046Z,1.00
2022-09-01T10:19:01.859Z,1.00
2022-09-01T10:21:32.945Z,1.00
2022-09-01T10:24:17.745Z,1.00
2022-09-01T10:26:52.097Z,1.00
2022-09-01T10:29:22.945Z,1.00
2022-09-01T10:31:59.421Z,1.00
2022-09-01T10:34:42.138Z,1.00
2022-09-01T10:37:11.735Z,1.00
2022-09-01T10:39:54.845Z,1.00
2022-09-01T10:42:22.662Z,1.00
2022-09-01T10:44:58.580Z,1.00
2022-09-01T10:47:28.087Z,1.00
2022-09-01T10:50:07.464Z,1.00
2022-09-01T10:52:56.063Z,1.00
2022-09-01T10:55:25.580Z,1.00
2022-09-01T10:58:08.469Z,1.00
2022-09-01T11:04:00.525Z,1.00
2022-09-01T11:09:38.818Z,1.00
2022-09-01T11:12:29.416Z,1.00
2022-09-01T11:14:59.009Z,1.00
2022-09-01T11:17:28.778Z,1.00
2022-09-01T11:19:59.197Z,1.00
2022-09-01T11:22:32.685Z,1.00
2022-09-01T11:25:19.541Z,1.00
2022-09-01T11:27:58.347Z,1.00
2022-09-01T11:30:32.359Z,1.00
2022-09-01T11:33:04.910Z,1.00
2022-09-01T11:35:32.984Z,1.00
2022-09-01T11:38:04.443Z,1.00
2022-09-01T11:40:33.188Z,1.00
2022-09-01T11:43:05.272Z,1.00
2022-09-01T11:45:34.749Z,1.00
2022-09-01T11:48:07.319Z,1.00
2022-09-01T11:50:36.251Z,1.00
2022-09-01T11:53:05.902Z,1.00
2022-09-01T11:55:35.672Z,1.00
2022-09-01T11:58:04.045Z,1.00
2022-09-01T12:00:33.124Z,1.00
2022-09-01T12:03:01.068Z,1.00
2022-09-01T12:05:32.069Z,1.00
2022-09-01T12:08:00.778Z,1.00
2022-09-01T12:10:31.670Z,1.00
2022-09-01T12:13:03.235Z,1.00
2022-09-01T12:15:31.321Z,1.00
2022-09-01T12:18:10.494Z,1.00
2022-09-01T12:20:39.993Z,1.00
2022-09-01T12:23:17.808Z,1.00
2022-09-01T12:25:46.385Z,1.00
2022-09-01T12:28:14.805Z,1.00
2022-09-01T12:30:45.312Z,1.00
2022-09-01T12:33:29.323Z,1.00
2022-09-01T12:36:12.072Z,1.00
2022-09-01T12:38:41.394Z,1.00
2022-09-01T12:43:56.467Z,99.90
2022-09-01T12:46:48.460Z,99.90
2022-09-01T12:49:20.614Z,99.90
2022-09-01T12:51:48.737Z,99.90
2022-09-01T12:54:25.841Z,99.90
2022-09-01T12:56:53.818Z,99.90
2022-09-01T12:59:35.794Z,99.90
2022-09-01T13:02:23.424Z,99.90
2022-09-01T13:04:51.736Z,99.90
2022-09-01T13:07:19.620Z,99.90
2022-09-01T13:09:48.815Z,99.90
2022-09-01T13:12:18.139Z,99.90
2022-09-01T13:14:46.186Z,99.90
2022-09-01T13:17:14.896Z,99.90
2022-09-01T13:19:43.184Z,99.90
2022-09-01T13:22:11.453Z,99.90
2022-09-01T13:24:40.024Z,99.90
2022-09-01T13:27:24.666Z,99.90
2022-09-01T13:29:52.582Z,99.90
2022-09-01T13:32:22.005Z,99.90
2022-09-01T13:34:51.753Z,99.90
2022-09-01T13:37:20.585Z,99.90
2022-09-01T13:39:48.679Z,99.90
2022-09-01T13:42:18.405Z,99.90
2022-09-01T13:44:48.554Z,99.90
2022-09-01T13:47:34.286Z,99.90
2022-09-01T13:50:08.394Z,99.90
2022-09-01T13:52:38.684Z,99.90
2022-09-01T13:55:07.458Z,99.90
2022-09-01T13:57:37.028Z,99.90
2022-09-01T14:00:07.459Z,99.90
2022-09-01T14:02:35.372Z,99.90
2022-09-01T14:05:03.236Z,99.90
2022-09-01T14:07:32.405Z,99.90
2022-09-01T14:10:00.400Z,99.90
2022-09-01T14:12:28.578Z,99.90
2022-09-01T14:15:17.126Z,99.90
2022-09-01T14:17:46.823Z,99.90
2022-09-01T14:20:16.227Z,99.90
2022-09-01T14:22:44.157Z,99.90
2022-09-01T14:25:12.384Z,99.90
2022-09-01T14:27:41.079Z,99.90
2022-09-01T14:30:12.438Z,99.90
2022-09-01T14:32:40.287Z,99.90
2022-09-01T14:35:09.147Z,99.90
2022-09-01T14:37:37.988Z,99.90
2022-09-01T14:40:07.271Z,99.90
2022-09-01T14:42:37.122Z,99.90
2022-09-01T14:45:05.048Z,99.90
2022-09-01T14:47:34.488Z,99.90
2022-09-01T14:50:02.793Z,99.90
2022-09-01T14:52:31.031Z,99.90
2022-09-01T14:54:59.611Z,99.90
2022-09-01T14:57:29.437Z,99.90
2022-09-01T14:59:59.635Z,99.90
2022-09-01T15:02:29.213Z,99.90
2022-09-01T15:04:58.397Z,99.90
2022-09-01T15:07:26.455Z,99.90
2022-09-01T15:09:54.297Z,99.90
2022-09-01T15:12:22.500Z,99.90
2022-09-01T15:14:50.727Z,99.90
2022-09-01T15:17:18.616Z,99.90
2022-09-01T15:19:46.508Z,99.90
2022-09-01T15:22:16.391Z,99.90
2022-09-01T15:24:44.583Z,99.90
2022-09-01T15:27:12.485Z,99.90
2022-09-01T15:29:47.836Z,99.90
2022-09-01T15:32:27.629Z,99.90
2022-09-01T15:34:56.373Z,99.90
2022-09-01T15:37:25.627Z,99.90
2022-09-01T15:39:53.576Z,99.90
2022-09-01T15:42:21.863Z,99.90
2022-09-01T15:44:49.961Z,99.90
2022-09-01T15:47:17.850Z,99.90
2022-09-01T15:49:45.928Z,99.90
2022-09-01T15:52:15.294Z,99.90
2022-09-01T15:54:44.551Z,99.90
2022-09-01T15:57:12.532Z,99.90
2022-09-01T15:59:43.073Z,99.90
2022-09-01T16:02:15.240Z,99.90
2022-09-01T16:04:43.160Z,99.90
2022-09-01T16:07:11.124Z,99.90
2022-09-01T16:09:39.232Z,99.90
2022-09-01T16:12:09.258Z,99.90
2022-09-01T16:14:37.087Z,99.90
2022-09-01T16:17:06.727Z,99.90
2022-09-01T16:19:39.004Z,99.90
2022-09-01T16:22:13.006Z,99.90
2022-09-01T16:24:42.415Z,99.90
2022-09-01T16:27:13.192Z,99.90
2022-09-01T16:29:45.312Z,99.90
2022-09-01T16:32:14.271Z,99.90
2022-09-01T16:34:46.720Z,99.90
2022-09-01T16:37:20.788Z,99.90
2022-09-01T16:39:50.621Z,99.90
2022-09-01T16:42:27.284Z,99.90
2022-09-01T16:45:02.945Z,99.90
2022-09-01T16:47:35.519Z,99.90
2022-09-01T16:50:08.436Z,99.90
2022-09-01T16:52:41.909Z,99.90
2022-09-01T16:55:16.318Z,99.90
2022-09-01T16:57:49.948Z,99.90
2022-09-01T17:00:28.813Z,99.90
2022-09-01T17:03:02.682Z,99.90
2022-09-01T17:05:34.564Z,99.90
2022-09-01T17:08:08.326Z,99.90
2022-09-01T17:10:40.787Z,99.90
2022-09-01T17:13:17.223Z,99.90
2022-09-01T17:15:48.144Z,99.90
2022-09-01T17:18:22.294Z,99.90
2022-09-01T17:20:57.990Z,99.90
2022-09-01T17:23:28.956Z,99.90
2022-09-01T17:26:01.654Z,99.90
2022-09-01T17:28:33.910Z,99.90
2022-09-01T17:31:04.853Z,99.90
2022-09-01T17:33:40.428Z,99.90
2022-09-01T17:36:13.901Z,99.90
2022-09-01T17:38:51.499Z,99.90
2022-09-01T17:41:23.483Z,99.90
2022-09-01T17:43:57.664Z,99.90
2022-09-01T17:46:28.935Z,99.90
2022-09-01T17:49:01.884Z,99.90
2022-09-01T17:51:31.417Z,99.90
2022-09-01T17:54:06.322Z,99.90
2022-09-01T17:56:42.388Z,99.90
2022-09-01T17:59:15.630Z,99.90
2022-09-01T18:01:50.470Z,99.90
2022-09-01T18:04:31.791Z,99.90
2022-09-01T18:07:02.442Z,99.90
2022-09-01T18:09:32.936Z,99.90
2022-09-01T18:12:02.492Z,99.90
2022-09-01T18:14:35.816Z,99.90
2022-09-01T18:17:05.415Z,99.90
2022-09-01T18:19:36.218Z,99.90
2022-09-01T18:22:06.228Z,99.90
2022-09-01T18:24:36.484Z,99.90
2022-09-01T18:27:04.521Z,99.90
2022-09-01T18:29:33.765Z,99.90
2022-09-01T18:32:09.147Z,99.90
2022-09-01T18:34:41.889Z,99.90
2022-09-01T18:37:11.815Z,99.90
2022-09-01T18:39:44.981Z,99.90
2022-09-01T18:42:17.793Z,99.90
2022-09-01T18:44:52.643Z,99.90
2022-09-01T18:47:27.597Z,99.90
2022-09-01T18:49:59.323Z,99.90
2022-09-01T18:52:46.734Z,99.90
2022-09-01T18:55:17.417Z,99.90
2022-09-01T18:57:48.463Z,99.90
2022-09-01T19:00:19.514Z,99.90
2022-09-01T19:03:11.197Z,99.90
2022-09-01T19:05:52.148Z,99.90
2022-09-01T19:08:25.144Z,99.90
2022-09-01T19:10:56.890Z,99.90
2022-09-01T19:13:33.604Z,1.00
2022-09-01T19:16:06.534Z,1.00
2022-09-01T19:18:39.911Z,1.00
2022-09-01T19:21:09.451Z,1.00
2022-09-01T19:23:41.528Z,1.00
2022-09-01T19:26:12.509Z,1.00
2022-09-01T19:28:43.101Z,1.00
2022-09-01T19:31:18.148Z,1.00
2022-09-01T19:33:47.825Z,1.00
2022-09-01T19:36:18.957Z,1.00
2022-09-01T19:38:47.709Z,1.00
2022-09-01T19:41:19.553Z,1.00
2022-09-01T19:43:49.510Z,1.00
2022-09-01T19:46:22.392Z,1.00
2022-09-01T19:48:52.804Z,1.00
2022-09-01T19:51:23.113Z,1.00
2022-09-01T19:53:54.829Z,1.00
2022-09-01T19:56:26.728Z,1.00
2022-09-01T19:58:57.454Z,1.00
2022-09-01T20:01:35.486Z,1.00
2022-09-01T20:04:06.225Z,1.00
2022-09-01T20:06:35.623Z,1.00
2022-09-01T20:09:08.259Z,1.00
2022-09-01T20:11:43.206Z,1.00
2022-09-01T20:14:20.280Z,1.00
2022-09-01T20:16:51.432Z,1.00
2022-09-01T20:19:27.348Z,1.00
2022-09-01T20:21:55.248Z,1.00
2022-09-01T20:24:27.595Z,1.00
2022-09-01T20:26:59.367Z,1.00
2022-09-01T20:29:29.742Z,1.00
2022-09-01T20:32:00.277Z,1.00
2022-09-01T20:34:30.304Z,1.00
2022-09-01T20:37:01.935Z,1.00
2022-09-01T20:39:52.400Z,1.00
2022-09-01T20:42:22.523Z,1.00
2022-09-01T20:44:52.555Z,1.00
2022-09-01T20:47:22.659Z,1.00
2022-09-01T20:49:50.568Z,1.00
2022-09-01T20:52:24.916Z,1.00
2022-09-01T20:54:54.455Z,1.00
2022-09-01T20:57:28.581Z,1.00
2022-09-01T20:59:57.620Z,1.00
2022-09-01T21:02:43.157Z,1.00
2022-09-01T21:05:20.353Z,1.00
2022-09-01T21:07:53.534Z,1.00
2022-09-01T21:10:24.971Z,1.00
2022-09-01T21:12:57.574Z,1.00
2022-09-01T21:15:31.978Z,1.00
2022-09-01T21:18:06.534Z,1.00
2022-09-01T21:20:40.959Z,1.00
2022-09-01T21:23:08.948Z,1.00
2022-09-01T21:25:36.710Z,1.00
2022-09-01T21:28:06.764Z,1.00
2022-09-01T21:30:35.905Z,1.00
2022-09-01T21:33:05.005Z,1.00
2022-09-01T21:35:33.334Z,1.00
2022-09-01T21:38:02.561Z,1.00
2022-09-01T21:40:30.931Z,1.00
2022-09-01T21:43:00.524Z,1.00
2022-09-01T21:45:28.463Z,1.00
2022-09-01T21:47:56.550Z,1.00
2022-09-01T21:50:25.222Z,1.00
2022-09-01T21:52:53.257Z,1.00
2022-09-01T21:55:23.342Z,1.00
2022-09-01T21:57:51.809Z,1.00
2022-09-01T22:00:20.651Z,1.00
2022-09-01T22:02:48.774Z,1.00
2022-09-01T22:05:16.742Z,1.00
2022-09-01T22:07:45.437Z,1.00
2022-09-01T22:10:14.104Z,1.00
2022-09-01T22:12:44.077Z,1.00
2022-09-01T22:15:12.658Z,1.00
2022-09-01T22:17:40.472Z,1.00
2022-09-01T22:20:09.414Z,1.00
2022-09-01T22:22:37.305Z,1.00
2022-09-01T22:25:06.013Z,1.00
2022-09-01T22:27:33.832Z,1.00
2022-09-01T22:30:03.154Z,1.00
2022-09-01T22:32:36.115Z,1.00
2022-09-01T22:35:04.251Z,1.00
2022-09-01T22:37:32.118Z,1.00
2022-09-01T22:39:59.943Z,1.00
2022-09-01T22:42:27.842Z,1.00
2022-09-01T22:44:55.763Z,1.00
2022-09-01T22:47:25.139Z,1.00
2022-09-01T22:49:54.733Z,1.00
2022-09-01T22:52:22.565Z,1.00
2022-09-01T22:54:50.425Z,1.00
2022-09-01T22:57:18.290Z,1.00
2022-09-01T22:59:46.145Z,1.00
2022-09-01T23:02:14.050Z,1.00
2022-09-01T23:04:43.276Z,1.00
2022-09-01T23:07:11.132Z,1.00
2022-09-01T23:09:39.033Z,1.00
2022-09-01T23:12:07.111Z,1.00
2022-09-01T23:14:34.993Z,1.00
2022-09-01T23:17:02.892Z,1.00
2022-09-01T23:19:30.725Z,1.00
2022-09-01T23:21:59.911Z,1.00
2022-09-01T23:24:27.751Z,1.00
2022-09-01T23:26:56.741Z,1.00
2022-09-01T23:29:25.323Z,1.00
2022-09-01T23:31:53.514Z,1.00
2022-09-01T23:34:21.415Z,1.00
2022-09-01T23:36:49.251Z,1.00
2022-09-01T23:39:18.591Z,1.00
2022-09-01T23:41:47.527Z,1.00
2022-09-01T23:44:16.007Z,1.00
2022-09-01T23:46:44.898Z,1.00
2022-09-01T23:49:14.058Z,1.00
2022-09-01T23:51:41.915Z,1.00
2022-09-01T23:54:10.084Z,1.00
2022-09-01T23:56:39.523Z,1.00
2022-09-01T23:59:07.466Z,1.00
